createdAt,value
2023-04-17T00:00:37.383Z,3.30
2023-04-17T00:03:06.257Z,3.10
2023-04-17T00:05:35.718Z,2.80
2023-04-17T00:08:06.594Z,2.70
2023-04-17T00:10:34.907Z,2.70
2023-04-17T00:13:04.220Z,2.80
2023-04-17T00:15:33.234Z,2.40
2023-04-17T00:18:02.712Z,2.30
2023-04-17T00:20:31.232Z,3.20
2023-04-17T00:22:59.475Z,2.60
2023-04-17T00:25:27.774Z,2.60
2023-04-17T00:27:56.228Z,2.30
2023-04-17T00:30:24.872Z,3.20
2023-04-17T00:32:53.798Z,3.20
2023-04-17T00:35:22.298Z,2.60
2023-04-17T00:37:51.211Z,2.60
2023-04-17T00:40:19.660Z,2.30
2023-04-17T00:42:53.306Z,2.80
2023-04-17T00:45:22.294Z,2.40
2023-04-17T00:47:52.081Z,2.50
2023-04-17T00:50:20.784Z,2.80
2023-04-17T00:52:51.956Z,2.60
2023-04-17T00:55:21.004Z,2.50
2023-04-17T00:57:50.802Z,2.20
2023-04-17T01:00:19.049Z,2.70
2023-04-17T01:02:48.758Z,3.00
2023-04-17T01:05:17.812Z,2.50
2023-04-17T01:07:46.738Z,2.70
2023-04-17T01:10:15.138Z,3.10
2023-04-17T01:12:47.120Z,2.60
2023-04-17T01:15:16.569Z,2.80
2023-04-17T01:17:45.417Z,2.40
2023-04-17T01:20:14.926Z,2.90
2023-04-17T01:22:43.515Z,2.80
2023-04-17T01:25:11.812Z,3.10
2023-04-17T01:27:41.999Z,3.10
2023-04-17T01:30:11.943Z,3.60
2023-04-17T01:32:56.536Z,3.20
2023-04-17T01:35:24.912Z,3.50
2023-04-17T01:37:53.355Z,3.40
2023-04-17T01:40:22.072Z,3.00
2023-04-17T01:42:50.575Z,3.00
2023-04-17T01:45:18.807Z,3.70
2023-04-17T01:47:47.765Z,4.20
2023-04-17T01:50:16.455Z,3.00
2023-04-17T01:52:45.389Z,4.90
2023-04-17T01:55:13.995Z,4.20
2023-04-17T01:57:42.890Z,3.30
2023-04-17T02:00:11.620Z,3.80
2023-04-17T02:02:45.090Z,3.60
2023-04-17T02:05:13.635Z,4.70
2023-04-17T02:07:43.132Z,4.30
2023-04-17T02:10:11.858Z,3.20
2023-04-17T02:12:40.841Z,3.00
2023-04-17T02:15:09.797Z,2.70
2023-04-17T02:17:38.568Z,3.40
2023-04-17T02:20:07.701Z,3.20
2023-04-17T02:22:37.997Z,2.80
2023-04-17T02:25:06.608Z,3.00
2023-04-17T02:27:35.291Z,3.80
2023-04-17T02:30:04.110Z,3.20
2023-04-17T02:32:34.422Z,2.50
2023-04-17T02:35:04.195Z,3.20
2023-04-17T02:37:33.641Z,2.60
2023-04-17T02:40:02.004Z,3.00
2023-04-17T02:42:31.022Z,3.00
2023-04-17T02:44:59.514Z,3.30
2023-04-17T02:47:27.960Z,4.00
2023-04-17T02:49:56.493Z,4.00
2023-04-17T02:52:24.834Z,3.30
2023-04-17T02:54:53.154Z,3.90
2023-04-17T02:57:21.646Z,3.00
2023-04-17T02:59:50.851Z,3.60
2023-04-17T03:02:22.361Z,2.80
2023-04-17T03:04:52.153Z,3.40
2023-04-17T03:07:23.778Z,3.40
2023-04-17T03:09:54.200Z,3.00
2023-04-17T03:12:23.832Z,3.00
2023-04-17T03:14:52.687Z,3.20
2023-04-17T03:17:21.100Z,3.10
2023-04-17T03:19:49.754Z,3.10
2023-04-17T03:22:18.318Z,3.50
2023-04-17T03:24:46.986Z,3.90
2023-04-17T03:27:15.792Z,4.10
2023-04-17T03:29:44.171Z,3.10
2023-04-17T03:32:12.942Z,2.90
2023-04-17T03:34:41.409Z,3.10
2023-04-17T03:37:09.817Z,2.80
2023-04-17T03:39:38.239Z,2.30
2023-04-17T03:42:08.504Z,2.90
2023-04-17T03:44:36.765Z,2.80
2023-04-17T03:47:05.075Z,3.30
2023-04-17T03:49:33.787Z,3.20
2023-04-17T03:52:03.989Z,2.40
2023-04-17T03:54:35.885Z,2.70
2023-04-17T03:57:06.262Z,2.10
2023-04-17T03:59:35.006Z,2.60
2023-04-17T04:02:03.544Z,2.50
2023-04-17T04:04:35.584Z,2.00
2023-04-17T04:07:10.769Z,2.20
2023-04-17T04:09:39.318Z,2.20
2023-04-17T04:12:08.799Z,2.20
2023-04-17T04:14:42.066Z,1.30
2023-04-17T04:17:11.368Z,2.10
2023-04-17T04:19:39.974Z,2.50
2023-04-17T04:22:08.347Z,2.60
2023-04-17T04:24:42.929Z,2.30
2023-04-17T04:27:18.072Z,2.40
2023-04-17T04:29:49.200Z,2.30
2023-04-17T04:32:20.458Z,2.40
2023-04-17T04:34:48.978Z,2.90
2023-04-17T04:37:22.038Z,2.40
2023-04-17T04:39:54.278Z,2.50
2023-04-17T04:42:24.172Z,2.00
2023-04-17T04:45:11.781Z,2.10
2023-04-17T04:47:40.118Z,2.20
2023-04-17T04:50:09.551Z,2.10
2023-04-17T04:52:38.106Z,3.00
2023-04-17T04:55:11.370Z,3.00
2023-04-17T04:57:44.063Z,2.90
2023-04-17T05:00:15.065Z,2.70
2023-04-17T05:02:46.160Z,2.20
2023-04-17T05:05:16.034Z,2.30
2023-04-17T05:07:44.402Z,2.70
2023-04-17T05:10:14.326Z,2.90
2023-04-17T05:15:15.656Z,2.60
2023-04-17T05:17:45.095Z,3.00
2023-04-17T05:20:15.785Z,2.40
2023-04-17T10:06:54.458Z,2.20
2023-04-17T10:09:23.497Z,1.90
2023-04-17T10:11:52.877Z,1.50
2023-04-17T10:14:37.616Z,1.70
2023-04-17T10:17:28.793Z,2.90
2023-04-17T10:20:23.771Z,1.60
2023-04-17T10:22:56.517Z,2.60
2023-04-17T10:28:02.147Z,3.00
2023-04-17T10:30:52.523Z,2.10
2023-04-17T10:33:26.219Z,2.40
2023-04-17T10:35:55.495Z,1.60
2023-04-17T13:33:05.073Z,2.60
2023-04-17T13:35:33.674Z,2.50
2023-04-17T13:38:03.373Z,3.40
2023-04-17T13:40:31.864Z,3.80
2023-04-17T13:43:00.699Z,3.20
2023-04-17T13:45:29.040Z,2.40
2023-04-17T13:47:57.496Z,2.10
2023-04-17T13:50:25.909Z,2.40
2023-04-17T13:52:54.287Z,3.10
2023-04-17T13:55:22.678Z,2.40
2023-04-17T13:57:51.879Z,3.20
2023-04-17T14:00:22.218Z,3.20
2023-04-17T14:02:50.756Z,2.80
2023-04-17T14:05:19.279Z,3.30
2023-04-17T14:07:48.009Z,3.50
2023-04-17T14:10:16.395Z,4.10
2023-04-17T14:12:45.696Z,3.20
2023-04-17T14:15:14.083Z,3.10
2023-04-17T14:17:43.442Z,4.00
2023-04-17T14:20:12.637Z,3.70
2023-04-17T14:22:41.165Z,2.80
2023-04-17T14:25:09.736Z,2.80
2023-04-17T14:27:38.987Z,3.10
2023-04-17T14:30:08.730Z,2.50
2023-04-17T14:32:38.840Z,3.10
2023-04-17T14:35:08.651Z,3.50
2023-04-17T14:37:38.907Z,2.60
2023-04-17T14:40:08.333Z,4.10
2023-04-17T14:42:47.320Z,2.70
2023-04-17T14:45:22.160Z,2.80
2023-04-17T14:47:50.832Z,2.20
2023-04-17T14:50:19.418Z,2.50
2023-04-17T14:52:48.179Z,2.60
2023-04-17T14:55:16.722Z,2.80
2023-04-17T14:57:45.035Z,3.00
2023-04-17T15:00:14.273Z,2.60
2023-04-17T15:02:43.594Z,2.00
2023-04-17T15:05:11.984Z,2.80
2023-04-17T15:07:40.836Z,4.40
2023-04-17T15:10:09.767Z,4.60
2023-04-17T15:12:38.195Z,4.00
2023-04-17T15:15:08.063Z,2.40
2023-04-17T15:17:37.965Z,2.50
2023-04-17T15:20:07.200Z,2.30
2023-04-17T15:22:35.682Z,2.70
2023-04-17T15:25:04.207Z,2.90
2023-04-17T15:27:33.358Z,2.60
2023-04-17T15:30:01.876Z,3.20
2023-04-17T15:32:30.895Z,2.50
2023-04-17T15:34:59.384Z,2.90
2023-04-17T15:37:27.927Z,2.50
2023-04-17T15:39:57.123Z,3.10
2023-04-17T15:42:27.427Z,2.80
2023-04-17T15:44:55.963Z,3.70
2023-04-17T15:47:24.202Z,3.70
2023-04-17T15:49:52.619Z,2.60
2023-04-17T15:52:20.924Z,4.20
2023-04-17T15:54:49.386Z,3.60
2023-04-17T15:57:17.864Z,3.10
2023-04-17T15:59:46.137Z,2.30
2023-04-17T16:02:15.469Z,2.50
2023-04-17T16:04:44.095Z,2.60
2023-04-17T16:07:13.329Z,3.10
2023-04-17T16:09:48.192Z,4.10
2023-04-17T16:12:16.682Z,2.60
2023-04-17T16:14:44.927Z,3.10
2023-04-17T16:17:13.242Z,2.50
2023-04-17T16:19:41.711Z,3.10
2023-04-17T16:22:10.038Z,4.20
2023-04-17T16:24:38.456Z,3.60
2023-04-17T16:27:06.905Z,3.10
2023-04-17T16:29:35.824Z,3.60
2023-04-17T16:32:04.203Z,3.50
2023-04-17T16:34:32.647Z,3.30
2023-04-17T16:37:01.154Z,3.20
2023-04-17T16:39:29.512Z,3.50
2023-04-17T16:41:57.953Z,3.10
2023-04-17T16:44:27.511Z,2.50
2023-04-17T16:47:10.085Z,3.30
2023-04-17T16:49:42.242Z,3.80
2023-04-17T16:52:10.594Z,3.30
2023-04-17T16:54:38.980Z,2.70
2023-04-17T16:57:07.639Z,2.90
2023-04-17T16:59:36.204Z,3.50
2023-04-17T17:02:04.790Z,3.10
2023-04-17T17:04:33.835Z,2.80
2023-04-17T17:07:02.434Z,3.10
2023-04-17T17:09:31.515Z,2.50
2023-04-17T17:12:00.817Z,2.60
2023-04-17T17:14:29.722Z,2.90
2023-04-17T17:16:58.352Z,2.50
2023-04-17T17:19:27.040Z,3.50
2023-04-17T17:21:55.503Z,2.60
2023-04-17T17:24:23.892Z,3.10
2023-04-17T17:26:52.391Z,5.00
2023-04-17T17:29:20.772Z,4.40
2023-04-17T17:31:49.323Z,4.80
2023-04-17T17:34:26.235Z,4.20
2023-04-17T17:36:55.594Z,4.40
2023-04-17T17:39:24.232Z,7.20
2023-04-17T17:41:52.678Z,5.80
2023-04-17T17:44:20.917Z,4.80
2023-04-17T17:46:49.189Z,3.50
2023-04-17T17:49:17.855Z,3.60
2023-04-17T17:51:46.186Z,4.10
2023-04-17T17:54:14.838Z,3.80
2023-04-17T17:56:43.300Z,4.40
2023-04-17T17:59:11.697Z,4.40
2023-04-17T18:01:40.675Z,3.50
2023-04-17T18:04:09.305Z,3.80
2023-04-17T18:06:38.073Z,3.50
2023-04-17T18:09:06.797Z,4.00
2023-04-17T18:11:35.365Z,4.60
2023-04-17T18:14:03.830Z,4.70
2023-04-17T18:16:33.090Z,4.20
2023-04-17T18:19:03.744Z,4.70
2023-04-17T18:21:32.665Z,3.90
2023-04-17T18:24:02.061Z,3.30
2023-04-17T18:26:31.537Z,3.80
2023-04-17T18:28:59.966Z,3.80
2023-04-17T18:31:28.518Z,2.80
2023-04-17T18:33:57.047Z,4.60
2023-04-17T18:36:26.420Z,4.30
2023-04-17T18:38:54.923Z,4.20
2023-04-17T18:41:23.406Z,3.60
2023-04-17T18:43:51.897Z,4.10
2023-04-17T18:46:22.013Z,4.30
2023-04-17T18:48:50.390Z,3.90
2023-04-17T18:51:18.638Z,3.70
2023-04-17T18:53:47.040Z,4.60
2023-04-17T18:56:15.951Z,5.10
2023-04-17T18:58:44.285Z,5.10
2023-04-17T19:01:12.895Z,4.30
2023-04-17T19:03:41.389Z,4.70
2023-04-17T19:06:10.010Z,4.50
2023-04-17T19:08:41.080Z,4.30
2023-04-17T19:11:09.904Z,4.20
2023-04-17T19:13:38.935Z,6.10
2023-04-17T19:16:07.325Z,6.70
2023-04-17T19:18:35.852Z,4.30
2023-04-17T19:21:04.493Z,5.60
2023-04-17T19:23:33.366Z,3.40
2023-04-17T19:26:01.834Z,2.90
2023-04-17T19:28:30.416Z,4.20
2023-04-17T19:30:59.544Z,6.70
2023-04-17T19:33:27.852Z,5.60
2023-04-17T19:35:58.512Z,3.50
2023-04-17T19:38:28.315Z,2.90
2023-04-17T19:41:19.750Z,4.40
2023-04-17T19:43:50.036Z,3.80
2023-04-17T19:46:19.944Z,2.80
2023-04-17T19:48:49.771Z,2.60
2023-04-17T19:51:18.448Z,3.00
2023-04-17T19:53:48.180Z,2.90
2023-04-17T19:56:16.902Z,3.00
2023-04-17T19:58:47.247Z,2.40
2023-04-17T20:03:46.514Z,2.60
2023-04-17T20:06:15.158Z,2.40
2023-04-17T20:08:44.116Z,2.90
2023-04-17T20:11:12.482Z,3.10
2023-04-17T20:13:41.897Z,2.80
2023-04-17T20:16:10.480Z,2.80
2023-04-17T20:18:38.710Z,3.50
2023-04-17T20:21:07.379Z,2.90
2023-04-17T20:23:36.159Z,2.60
2023-04-17T20:26:04.435Z,2.50
2023-04-17T20:28:32.958Z,2.80
2023-04-17T20:31:01.466Z,3.00
2023-04-17T20:33:30.086Z,3.20
2023-04-17T20:35:58.608Z,2.80
2023-04-17T20:38:27.182Z,2.80
2023-04-17T20:40:55.753Z,2.60
2023-04-17T20:43:24.119Z,3.20
2023-04-17T20:45:53.107Z,2.50
2023-04-17T20:48:22.022Z,2.50
2023-04-17T20:50:50.660Z,3.00
2023-04-17T20:53:18.970Z,3.10
2023-04-17T20:55:47.615Z,3.10
2023-04-17T20:58:16.764Z,2.60
2023-04-17T21:00:58.248Z,2.70
2023-04-17T21:03:31.329Z,3.10
2023-04-17T21:06:01.144Z,3.30
2023-04-17T21:08:29.627Z,2.70
2023-04-17T21:10:58.204Z,3.00
2023-04-17T21:13:26.855Z,3.30
2023-04-17T21:15:55.330Z,2.70
2023-04-17T21:18:23.763Z,2.90
2023-04-17T21:20:52.111Z,2.50
2023-04-17T21:23:21.744Z,2.30
2023-04-17T21:25:52.035Z,3.20
2023-04-17T21:28:21.108Z,3.40
2023-04-17T21:30:49.690Z,2.60
2023-04-17T21:33:18.319Z,4.10
2023-04-17T21:35:46.872Z,3.20
2023-04-17T21:38:15.588Z,3.40
2023-04-17T21:40:51.022Z,3.10
2023-04-17T21:43:21.189Z,2.70
2023-04-17T21:45:50.212Z,3.50
2023-04-17T21:48:19.406Z,3.20
2023-04-17T21:50:47.776Z,3.80
2023-04-17T21:53:16.890Z,3.30
2023-04-17T21:55:45.349Z,3.80
2023-04-17T21:58:14.324Z,3.30
2023-04-17T22:00:42.782Z,3.20
2023-04-17T22:03:11.336Z,3.50
2023-04-17T22:05:40.969Z,2.80
2023-04-17T22:08:09.461Z,3.00
2023-04-17T22:10:37.905Z,2.70
2023-04-17T22:13:06.176Z,3.80
2023-04-17T22:15:35.144Z,3.10
2023-04-17T22:18:03.937Z,3.30
2023-04-17T22:20:32.308Z,4.10
2023-04-17T22:23:00.660Z,3.20
2023-04-17T22:25:31.518Z,3.30
2023-04-17T22:27:59.814Z,3.80
2023-04-17T22:30:28.139Z,3.80
2023-04-17T22:32:57.490Z,4.20
2023-04-17T22:35:25.895Z,3.90
2023-04-17T22:37:54.371Z,4.10
2023-04-17T22:40:22.801Z,3.30
2023-04-17T22:42:51.150Z,4.10
2023-04-17T22:45:19.493Z,3.50
2023-04-17T22:47:47.850Z,4.30
2023-04-17T22:50:17.953Z,3.60
2023-04-17T22:52:46.343Z,3.00
2023-04-17T22:55:14.714Z,3.90
2023-04-17T22:57:43.088Z,3.70
2023-04-17T23:00:11.936Z,3.90
2023-04-17T23:02:40.677Z,4.50
2023-04-17T23:05:09.303Z,3.60
2023-04-17T23:07:38.353Z,4.50
2023-04-17T23:10:07.074Z,4.90
2023-04-17T23:12:35.530Z,5.60
2023-04-17T23:15:04.173Z,4.20
2023-04-17T23:17:34.785Z,5.10
2023-04-17T23:20:04.236Z,4.60
2023-04-17T23:22:32.876Z,4.70
2023-04-17T23:25:01.742Z,5.30
2023-04-17T23:27:32.347Z,4.70
2023-04-17T23:30:00.870Z,4.30
2023-04-17T23:32:30.612Z,5.60
2023-04-17T23:34:59.237Z,4.40
2023-04-17T23:37:30.101Z,4.70
2023-04-17T23:39:58.456Z,4.40
2023-04-17T23:42:26.728Z,4.00
2023-04-17T23:44:56.115Z,5.90
2023-04-17T23:47:24.516Z,5.60
2023-04-17T23:49:52.864Z,5.20
2023-04-17T23:52:21.986Z,5.90
2023-04-17T23:54:51.262Z,5.60
2023-04-17T23:57:19.596Z,4.40
2023-04-17T23:59:49.329Z,5.90
